createdAt,value
2022-10-02T00:01:12.998Z,100061.28
2022-10-02T00:04:49.934Z,100055.03
2022-10-02T00:08:28.946Z,100045.53
2022-10-02T00:12:01.924Z,100041.03
2022-10-02T00:15:36.013Z,100031.28
2022-10-02T00:19:00.938Z,100041.88
2022-10-02T00:22:33.984Z,100039.03
2022-10-02T00:25:57.498Z,100034.66
2022-10-02T00:29:25.066Z,100028.13
2022-10-02T00:33:29.998Z,100024.53
2022-10-02T00:37:07.060Z,100021.09
2022-10-02T00:40:48.960Z,100015.09
2022-10-02T00:44:22.061Z,100014.97
2022-10-02T00:48:06.973Z,99998.09
2022-10-02T00:51:54.951Z,99996.72
2022-10-02T00:55:45.985Z,99999.41
2022-10-02T00:59:45.984Z,99985.47
2022-10-02T01:03:31.016Z,99980.59
2022-10-02T01:06:54.944Z,99964.19
2022-10-02T01:10:19.017Z,99961.41
2022-10-02T01:13:42.957Z,99955.31
2022-10-02T01:17:06.992Z,99942.66
2022-10-02T01:20:33.948Z,99932.16
2022-10-02T01:24:20.125Z,99936.53
2022-10-02T01:27:39.349Z,99921.28
2022-10-02T01:31:00.004Z,99926.19
2022-10-02T01:34:25.084Z,99923.03
2022-10-02T01:37:52.080Z,99927.66
2022-10-02T01:41:15.977Z,99900.84
2022-10-02T01:44:40.087Z,99912.88
2022-10-02T01:48:11.020Z,99907.09
2022-10-02T01:52:07.997Z,99910.47
2022-10-02T01:55:49.051Z,99901.03
2022-10-02T01:59:36.069Z,99896.84
2022-10-02T02:03:27.083Z,99889.44
2022-10-02T02:07:05.132Z,99883.72
2022-10-02T02:10:53.010Z,99872.22
2022-10-02T02:14:19.134Z,99872.31
2022-10-02T02:17:54.013Z,99858.31
2022-10-02T02:21:27.016Z,99869.97
2022-10-02T02:25:23.095Z,99856.78
2022-10-02T02:28:48.041Z,99855.31
2022-10-02T02:32:13.077Z,99840.22
2022-10-02T02:35:49.023Z,99845.88
2022-10-02T02:39:20.101Z,99848.38
2022-10-02T02:42:47.043Z,99834.56
2022-10-02T02:46:13.159Z,99828.88
2022-10-02T02:49:38.094Z,99830.28
2022-10-02T02:53:31.113Z,99828.03
2022-10-02T02:56:56.130Z,99829.03
2022-10-02T03:00:21.108Z,99805.63
2022-10-02T03:03:45.030Z,99820.00
2022-10-02T03:07:13.021Z,99818.06
2022-10-02T03:10:52.034Z,99826.94
2022-10-02T03:14:34.128Z,99823.88
2022-10-02T03:19:05.055Z,99827.69
2022-10-02T03:22:51.015Z,99819.28
2022-10-02T03:26:24.087Z,99811.03
2022-10-02T03:30:08.129Z,99813.03
2022-10-02T03:33:33.029Z,99801.91
2022-10-02T03:36:58.139Z,99800.66
2022-10-02T03:40:22.041Z,99799.59
2022-10-02T03:43:46.059Z,99799.69
2022-10-02T03:47:10.043Z,99803.09
2022-10-02T03:50:36.334Z,99803.91
2022-10-02T03:54:02.066Z,99802.13
2022-10-02T03:57:33.052Z,99806.97
2022-10-02T04:01:21.133Z,99808.72
2022-10-02T04:05:06.257Z,99806.63
2022-10-02T04:08:54.063Z,99805.91
2022-10-02T04:12:40.164Z,99804.50
2022-10-02T04:16:12.200Z,99801.72
2022-10-02T04:19:48.051Z,99803.78
2022-10-02T04:23:24.167Z,99799.69
2022-10-02T04:26:51.051Z,99799.06
2022-10-02T04:30:22.216Z,99795.88
2022-10-02T04:33:47.054Z,99801.31
2022-10-02T04:37:24.110Z,99794.75
2022-10-02T04:41:07.071Z,99791.38
2022-10-02T04:44:54.098Z,99791.38
2022-10-02T04:48:42.129Z,99790.56
2022-10-02T04:52:15.070Z,99797.63
2022-10-02T04:56:16.147Z,99794.56
2022-10-02T04:59:58.061Z,99803.41
2022-10-02T05:03:34.108Z,99800.97
2022-10-02T05:07:16.059Z,99802.00
2022-10-02T05:10:48.108Z,99797.88
2022-10-02T05:14:38.060Z,99790.56
2022-10-02T05:18:01.114Z,99794.09
2022-10-02T05:21:33.060Z,99795.94
2022-10-02T05:25:06.077Z,99800.56
2022-10-02T05:28:31.712Z,99796.63
2022-10-02T05:32:04.125Z,99808.13
2022-10-02T05:35:40.076Z,99823.00
2022-10-02T05:39:11.088Z,99833.31
2022-10-02T05:42:51.088Z,99824.72
2022-10-02T05:46:18.129Z,99821.13
2022-10-02T05:49:53.079Z,99824.63
2022-10-02T05:53:26.077Z,99823.88
2022-10-02T05:57:00.100Z,99817.13
2022-10-02T06:00:52.148Z,99820.38
2022-10-02T06:04:25.081Z,99820.63
2022-10-02T06:07:49.065Z,99800.97
2022-10-02T06:11:36.129Z,99807.13
2022-10-02T06:15:05.062Z,99812.38
2022-10-02T06:18:35.076Z,99811.78
2022-10-02T06:22:06.105Z,99810.75
2022-10-02T06:25:45.127Z,99812.38
2022-10-02T06:29:30.028Z,99806.13
2022-10-02T06:32:49.096Z,99807.03
2022-10-02T06:36:29.108Z,99803.50
2022-10-02T06:40:14.157Z,99801.91
2022-10-02T06:43:56.064Z,99797.47
2022-10-02T06:47:35.154Z,99807.63
2022-10-02T06:51:25.054Z,99806.56
2022-10-02T06:55:06.151Z,99807.28
2022-10-02T06:58:48.094Z,99800.97
2022-10-02T07:02:21.178Z,99800.59
2022-10-02T07:06:18.116Z,99799.94
2022-10-02T07:10:02.124Z,99807.22
2022-10-02T07:13:34.171Z,99816.34
2022-10-02T07:17:22.302Z,99818.94
2022-10-02T07:20:49.167Z,99808.34
2022-10-02T07:24:25.087Z,99805.72
2022-10-02T07:28:33.190Z,99795.47
2022-10-02T07:32:16.686Z,99800.53
2022-10-02T07:35:52.125Z,99804.19
2022-10-02T07:40:11.106Z,99809.31
2022-10-02T07:44:02.149Z,99805.22
2022-10-02T07:47:29.143Z,99809.03
2022-10-02T07:51:49.138Z,99810.56
2022-10-02T07:55:21.160Z,99815.75
2022-10-02T07:59:10.189Z,99809.13
2022-10-02T08:02:48.178Z,99835.13
2022-10-02T08:06:14.187Z,99829.81
2022-10-02T08:09:49.196Z,99824.50
2022-10-02T08:13:28.120Z,99830.38
2022-10-02T08:16:59.150Z,99815.53
2022-10-02T08:20:31.156Z,99805.44
2022-10-02T08:24:07.158Z,99824.13
2022-10-02T08:27:36.163Z,99825.03
2022-10-02T08:31:00.201Z,99819.81
2022-10-02T08:34:34.163Z,99823.31
2022-10-02T08:38:22.200Z,99832.56
2022-10-02T08:41:58.188Z,99833.09
2022-10-02T08:45:47.198Z,99837.41
2022-10-02T08:49:17.181Z,99839.69
2022-10-02T08:52:50.176Z,99831.78
2022-10-02T08:56:38.477Z,99830.22
2022-10-02T09:00:22.169Z,99821.34
2022-10-02T09:04:27.217Z,99814.53
2022-10-02T09:08:06.215Z,99819.44
2022-10-02T09:11:53.130Z,99804.25
2022-10-02T09:15:34.207Z,99806.81
2022-10-02T09:19:17.181Z,99805.28
2022-10-02T09:23:03.167Z,99805.38
2022-10-02T09:27:04.152Z,99808.31
2022-10-02T09:30:47.187Z,99807.34
2022-10-02T09:34:37.767Z,99805.59
2022-10-02T09:38:23.208Z,99807.28
2022-10-02T09:41:58.133Z,99808.59
2022-10-02T09:45:41.227Z,99802.72
2022-10-02T09:49:30.153Z,99801.41
2022-10-02T09:53:15.212Z,99797.78
2022-10-02T09:57:09.199Z,99790.53
2022-10-02T10:01:01.231Z,99788.13
2022-10-02T10:05:05.503Z,99784.22
2022-10-02T10:08:42.207Z,99787.63
2022-10-02T10:12:13.182Z,99768.63
2022-10-02T10:15:55.215Z,99781.44
2022-10-02T10:19:46.217Z,99772.81
2022-10-02T10:23:59.161Z,99767.34
2022-10-02T10:27:51.287Z,99767.81
2022-10-02T10:31:19.266Z,99766.50
2022-10-02T10:35:01.263Z,99763.47
2022-10-02T10:38:51.159Z,99761.38
2022-10-02T10:42:41.104Z,99761.88
2022-10-02T10:46:22.166Z,99759.59
2022-10-02T10:50:12.216Z,99762.31
2022-10-02T10:54:01.713Z,99763.69
2022-10-02T10:58:13.203Z,99763.13
2022-10-02T11:01:32.256Z,99760.53
2022-10-02T11:05:30.215Z,99759.44
2022-10-02T11:09:12.254Z,99754.13
2022-10-02T11:12:57.211Z,99753.97
2022-10-02T11:16:53.255Z,99750.72
2022-10-02T11:20:38.184Z,99748.47
2022-10-02T11:24:26.249Z,99746.19
2022-10-02T11:28:08.269Z,99738.03
2022-10-02T11:31:56.258Z,99737.59
2022-10-02T11:35:34.831Z,99738.44
2022-10-02T11:39:01.260Z,99723.56
2022-10-02T11:42:46.171Z,99728.88
2022-10-02T11:46:49.278Z,99724.50
2022-10-02T11:50:28.244Z,99729.97
2022-10-02T11:54:20.282Z,99727.59
2022-10-02T11:58:00.223Z,99721.78
2022-10-02T12:01:32.281Z,99716.50
2022-10-02T12:05:26.229Z,99719.28
2022-10-02T12:09:09.278Z,99712.25
2022-10-02T12:12:40.250Z,99714.22
2022-10-02T12:16:13.293Z,99711.22
2022-10-02T12:20:17.231Z,99706.31
2022-10-02T12:24:54.904Z,99704.78
2022-10-02T12:28:42.248Z,99703.59
2022-10-02T12:32:16.222Z,99692.88
2022-10-02T12:36:01.276Z,99692.59
2022-10-02T12:39:47.261Z,99689.47
2022-10-02T12:44:01.276Z,99685.31
2022-10-02T12:47:39.214Z,99683.22
2022-10-02T12:51:41.298Z,99677.09
2022-10-02T12:55:31.267Z,99679.88
2022-10-02T12:59:33.344Z,99673.50
2022-10-02T13:03:07.291Z,99670.13
2022-10-02T13:06:32.259Z,99671.22
2022-10-02T13:10:16.212Z,99664.28
2022-10-02T13:13:44.264Z,99659.75
2022-10-02T13:17:26.277Z,99663.16
2022-10-02T13:20:59.301Z,99660.91
2022-10-02T13:24:55.280Z,99644.72
2022-10-02T13:29:10.302Z,99655.47
2022-10-02T13:32:52.279Z,99644.44
2022-10-02T13:36:23.301Z,99643.09
2022-10-02T13:40:26.257Z,99646.84
2022-10-02T13:43:57.735Z,99637.97
2022-10-02T13:47:49.459Z,99637.69
2022-10-02T13:51:24.333Z,99625.19
2022-10-02T13:55:00.269Z,99627.59
2022-10-02T13:58:39.357Z,99623.88
2022-10-02T14:02:30.277Z,99618.69
2022-10-02T14:06:11.309Z,99624.88
2022-10-02T14:09:58.329Z,99618.63
2022-10-02T14:13:50.319Z,99609.97
2022-10-02T14:17:33.313Z,99615.38
2022-10-02T14:21:15.321Z,99606.75
2022-10-02T14:25:13.336Z,99608.69
2022-10-02T14:29:04.967Z,99605.72
2022-10-02T14:32:51.327Z,99603.44
2022-10-02T14:36:18.398Z,99599.19
2022-10-02T14:39:47.933Z,99588.59
2022-10-02T14:43:09.440Z,99578.91
2022-10-02T14:46:46.352Z,99578.91
2022-10-02T14:50:31.975Z,99588.72
2022-10-02T14:54:18.290Z,99583.03
2022-10-02T14:58:08.394Z,99582.34
2022-10-02T15:01:37.511Z,99570.66
2022-10-02T15:05:15.339Z,99576.13
2022-10-02T15:08:40.453Z,99570.50
2022-10-02T15:12:11.361Z,99571.44
2022-10-02T15:15:52.466Z,99567.72
2022-10-02T15:19:39.329Z,99561.00
2022-10-02T15:23:26.354Z,99562.66
2022-10-02T15:27:09.300Z,99563.31
2022-10-02T15:30:37.340Z,99573.28
2022-10-02T15:34:39.358Z,99567.31
2022-10-02T15:38:27.356Z,99564.22
2022-10-02T15:42:09.359Z,99561.06
2022-10-02T15:45:47.419Z,99555.88
2022-10-02T15:49:40.427Z,99556.97
2022-10-02T15:53:16.337Z,99549.63
2022-10-02T15:56:45.355Z,99542.34
2022-10-02T16:00:27.377Z,99541.59
2022-10-02T16:04:20.324Z,99540.91
2022-10-02T16:08:11.456Z,99548.84
2022-10-02T16:12:00.307Z,99549.06
2022-10-02T16:15:46.355Z,99546.22
2022-10-02T16:19:22.353Z,99536.09
2022-10-02T16:23:04.415Z,99537.22
2022-10-02T16:26:37.579Z,99543.66
2022-10-02T16:30:09.328Z,99549.78
2022-10-02T16:33:35.382Z,99534.72
2022-10-02T16:37:16.333Z,99530.91
2022-10-02T16:40:58.427Z,99531.66
2022-10-02T16:44:29.376Z,99531.22
2022-10-02T16:48:21.378Z,99528.59
2022-10-02T16:51:48.363Z,99530.19
2022-10-02T16:55:36.342Z,99532.41
2022-10-02T16:59:10.426Z,99520.97
2022-10-02T17:02:42.399Z,99533.78
2022-10-02T17:06:24.354Z,99532.00
2022-10-02T17:10:01.425Z,99528.66
2022-10-02T17:13:27.353Z,99530.06
2022-10-02T17:17:03.463Z,99531.72
2022-10-02T17:20:42.433Z,99528.16
2022-10-02T17:24:23.573Z,99526.03
2022-10-02T17:28:16.493Z,99525.72
2022-10-02T17:31:42.452Z,99533.56
2022-10-02T17:35:08.476Z,99532.00
2022-10-02T17:38:38.419Z,99544.44
2022-10-02T17:42:24.390Z,99541.69
2022-10-02T17:45:54.435Z,99535.91
2022-10-02T17:49:30.477Z,99539.19
2022-10-02T17:53:18.519Z,99539.25
2022-10-02T17:56:59.486Z,99535.22
2022-10-02T18:00:32.403Z,99533.84
2022-10-02T18:04:08.461Z,99542.50
2022-10-02T18:07:56.402Z,99542.94
2022-10-02T18:11:47.456Z,99542.34
2022-10-02T18:15:20.623Z,99548.22
2022-10-02T18:19:22.419Z,99542.06
2022-10-02T18:23:14.519Z,99544.28
2022-10-02T18:26:59.482Z,99550.25
2022-10-02T18:30:29.473Z,99553.16
2022-10-02T18:34:14.451Z,99568.44
2022-10-02T18:38:25.481Z,99559.13
2022-10-02T18:42:03.455Z,99568.88
2022-10-02T18:45:39.489Z,99564.28
2022-10-02T18:49:05.413Z,99571.50
2022-10-02T18:53:05.504Z,99581.25
2022-10-02T18:56:34.412Z,99579.38
2022-10-02T19:00:23.434Z,99578.53
2022-10-02T19:04:20.504Z,99586.84
2022-10-02T19:08:19.481Z,99584.63
2022-10-02T19:11:44.486Z,99586.38
2022-10-02T19:15:09.499Z,99587.53
2022-10-02T19:18:41.440Z,99590.50
2022-10-02T19:22:07.508Z,99588.63
2022-10-02T19:25:36.446Z,99583.53
2022-10-02T19:29:08.413Z,99590.69
2022-10-02T19:32:51.526Z,99592.41
2022-10-02T19:36:21.450Z,99590.88
2022-10-02T19:39:54.503Z,99594.00
2022-10-02T19:43:36.543Z,99597.44
2022-10-02T19:46:58.087Z,99598.69
2022-10-02T19:50:31.598Z,99596.84
2022-10-02T19:53:59.509Z,99600.75
2022-10-02T19:57:32.553Z,99598.16
2022-10-02T20:00:56.559Z,99600.59
2022-10-02T20:04:21.521Z,99593.44
2022-10-02T20:07:46.537Z,99602.44
2022-10-02T20:11:30.452Z,99602.63
2022-10-02T20:14:58.493Z,99597.41
2022-10-02T20:18:23.520Z,99601.72
2022-10-02T20:22:25.431Z,99607.78
2022-10-02T20:25:56.449Z,99606.34
2022-10-02T20:29:26.442Z,99610.69
2022-10-02T20:32:58.547Z,99605.03
2022-10-02T20:36:29.430Z,99597.72
2022-10-02T20:40:16.595Z,99603.75
2022-10-02T20:44:15.534Z,99612.72
2022-10-02T20:48:04.545Z,99616.13
2022-10-02T20:51:30.580Z,99615.00
2022-10-02T20:55:06.461Z,99610.69
2022-10-02T20:59:00.465Z,99620.03
2022-10-02T21:02:42.545Z,99612.16
2022-10-02T21:06:24.561Z,99618.94
2022-10-02T21:09:54.488Z,99622.44
2022-10-02T21:13:36.483Z,99629.56
2022-10-02T21:17:12.539Z,99626.09
2022-10-02T21:20:53.593Z,99626.44
2022-10-02T21:24:53.595Z,99634.59
2022-10-02T21:28:30.566Z,99634.31
2022-10-02T21:32:28.512Z,99629.81
2022-10-02T21:36:44.457Z,99630.31
2022-10-02T21:40:17.461Z,99635.44
2022-10-02T21:44:09.452Z,99646.84
2022-10-02T21:48:14.537Z,99647.28
2022-10-02T21:52:14.524Z,99642.97
2022-10-02T21:56:08.568Z,99648.97
2022-10-02T22:00:05.475Z,99645.38
2022-10-02T22:03:35.570Z,99648.72
2022-10-02T22:07:22.496Z,99649.63
2022-10-02T22:10:59.485Z,99649.75
2022-10-02T22:14:52.635Z,99646.63
2022-10-02T22:18:23.518Z,99647.50
2022-10-02T22:22:05.472Z,99636.84
2022-10-02T22:25:36.609Z,99644.09
2022-10-02T22:29:04.522Z,99644.41
2022-10-02T22:33:21.530Z,99639.84
2022-10-02T22:37:04.499Z,99625.16
2022-10-02T22:40:34.502Z,99646.81
2022-10-02T22:44:08.470Z,99633.03
2022-10-02T22:47:49.511Z,99635.44
2022-10-02T22:51:18.150Z,99632.56
2022-10-02T22:54:51.519Z,99633.69
2022-10-02T22:58:14.500Z,99631.09
2022-10-02T23:02:06.691Z,99631.75
2022-10-02T23:05:43.540Z,99623.25
2022-10-02T23:09:21.481Z,99619.69
2022-10-02T23:13:15.491Z,99624.84
2022-10-02T23:17:11.541Z,99625.47
2022-10-02T23:20:55.501Z,99628.78
2022-10-02T23:24:39.566Z,99631.22
2022-10-02T23:28:16.500Z,99631.38
2022-10-02T23:31:47.538Z,99635.22
2022-10-02T23:35:35.592Z,99608.63
2022-10-02T23:39:26.543Z,99606.53
2022-10-02T23:43:20.524Z,99605.97
2022-10-02T23:46:59.603Z,99611.22
2022-10-02T23:51:01.524Z,99613.13
2022-10-02T23:54:49.549Z,99610.22
2022-10-02T23:58:17.508Z,99610.25
